sensor_id;sensor_type;location;lat;lon;timestamp;temperature;humidity
19254;DHT22;9761;50.926;5.330;2022-07-18T00:01:32;20.40;99.90
19254;DHT22;9761;50.926;5.330;2022-07-18T00:04:00;20.40;99.90
19254;DHT22;9761;50.926;5.330;2022-07-18T00:06:27;20.40;99.90
19254;DHT22;9761;50.926;5.330;2022-07-18T00:08:57;20.30;99.90
19254;DHT22;9761;50.926;5.330;2022-07-18T00:11:24;20.30;99.90
19254;DHT22;9761;50.926;5.330;2022-07-18T00:13:51;20.30;99.90
19254;DHT22;9761;50.926;5.330;2022-07-18T00:18:50;20.20;99.90
19254;DHT22;9761;50.926;5.330;2022-07-18T00:21:20;20.20;99.90
19254;DHT22;9761;50.926;5.330;2022-07-18T00:23:47;20.20;99.90
19254;DHT22;9761;50.926;5.330;2022-07-18T00:26:17;20.20;99.90
19254;DHT22;9761;50.926;5.330;2022-07-18T00:28:49;20.20;99.90
19254;DHT22;9761;50.926;5.330;2022-07-18T00:31:16;20.20;99.90
19254;DHT22;9761;50.926;5.330;2022-07-18T00:33:43;20.20;99.90
19254;DHT22;9761;50.926;5.330;2022-07-18T00:36:10;20.20;99.90
19254;DHT22;9761;50.926;5.330;2022-07-18T00:38:36;20.10;99.90
19254;DHT22;9761;50.926;5.330;2022-07-18T00:41:03;20.20;99.90
19254;DHT22;9761;50.926;5.330;2022-07-18T00:43:32;20.30;99.90
19254;DHT22;9761;50.926;5.330;2022-07-18T00:45:59;20.10;99.90
19254;DHT22;9761;50.926;5.330;2022-07-18T00:48:25;20.10;99.90
19254;DHT22;9761;50.926;5.330;2022-07-18T00:50:52;20.20;99.90
19254;DHT22;9761;50.926;5.330;2022-07-18T00:53:19;20.20;99.90
19254;DHT22;9761;50.926;5.330;2022-07-18T00:55:52;20.10;99.90
19254;DHT22;9761;50.926;5.330;2022-07-18T00:58:19;19.90;99.90
19254;DHT22;9761;50.926;5.330;2022-07-18T01:00:48;19.80;99.90
19254;DHT22;9761;50.926;5.330;2022-07-18T01:03:32;19.80;99.90
19254;DHT22;9761;50.926;5.330;2022-07-18T01:05:58;19.80;99.90
19254;DHT22;9761;50.926;5.330;2022-07-18T01:08:27;19.80;99.90
19254;DHT22;9761;50.926;5.330;2022-07-18T01:10:53;19.80;99.90
19254;DHT22;9761;50.926;5.330;2022-07-18T01:13:24;19.80;99.90
19254;DHT22;9761;50.926;5.330;2022-07-18T01:18:40;19.70;99.90
19254;DHT22;9761;50.926;5.330;2022-07-18T01:21:21;19.60;99.90
19254;DHT22;9761;50.926;5.330;2022-07-18T01:23:55;19.60;99.90
19254;DHT22;9761;50.926;5.330;2022-07-18T01:26:23;19.60;99.90
19254;DHT22;9761;50.926;5.330;2022-07-18T01:28:50;19.50;99.90
19254;DHT22;9761;50.926;5.330;2022-07-18T01:31:16;19.40;99.90
19254;DHT22;9761;50.926;5.330;2022-07-18T01:33:43;19.40;99.90
19254;DHT22;9761;50.926;5.330;2022-07-18T01:36:12;19.40;99.90
19254;DHT22;9761;50.926;5.330;2022-07-18T01:38:40;19.40;99.90
19254;DHT22;9761;50.926;5.330;2022-07-18T01:41:16;19.40;99.90
19254;DHT22;9761;50.926;5.330;2022-07-18T01:43:43;19.30;99.90
19254;DHT22;9761;50.926;5.330;2022-07-18T01:46:10;19.30;99.90
19254;DHT22;9761;50.926;5.330;2022-07-18T01:48:38;19.40;99.90
19254;DHT22;9761;50.926;5.330;2022-07-18T01:51:06;19.50;99.90
19254;DHT22;9761;50.926;5.330;2022-07-18T01:53:35;19.30;99.90
19254;DHT22;9761;50.926;5.330;2022-07-18T01:56:05;19.30;99.90
19254;DHT22;9761;50.926;5.330;2022-07-18T01:58:34;19.30;99.90
19254;DHT22;9761;50.926;5.330;2022-07-18T02:01:01;19.30;99.90
19254;DHT22;9761;50.926;5.330;2022-07-18T02:03:29;19.10;99.90
19254;DHT22;9761;50.926;5.330;2022-07-18T02:05:58;19.10;99.90
19254;DHT22;9761;50.926;5.330;2022-07-18T02:08:25;19.10;99.90
19254;DHT22;9761;50.926;5.330;2022-07-18T02:11:00;19.00;99.90
19254;DHT22;9761;50.926;5.330;2022-07-18T02:13:28;19.00;99.90
19254;DHT22;9761;50.926;5.330;2022-07-18T02:15:55;19.00;99.90
19254;DHT22;9761;50.926;5.330;2022-07-18T02:18:22;19.00;99.90
19254;DHT22;9761;50.926;5.330;2022-07-18T02:20:49;19.00;99.90
19254;DHT22;9761;50.926;5.330;2022-07-18T02:23:16;18.90;99.90
19254;DHT22;9761;50.926;5.330;2022-07-18T02:25:43;18.90;99.90
19254;DHT22;9761;50.926;5.330;2022-07-18T02:28:10;18.80;99.90
19254;DHT22;9761;50.926;5.330;2022-07-18T02:30:39;18.70;99.90
19254;DHT22;9761;50.926;5.330;2022-07-18T02:33:05;18.70;99.90
19254;DHT22;9761;50.926;5.330;2022-07-18T02:35:32;18.60;99.90
19254;DHT22;9761;50.926;5.330;2022-07-18T02:38:12;18.50;99.90
19254;DHT22;9761;50.926;5.330;2022-07-18T02:40:45;18.50;99.90
19254;DHT22;9761;50.926;5.330;2022-07-18T02:43:17;18.60;99.90
19254;DHT22;9761;50.926;5.330;2022-07-18T02:45:54;18.50;99.90
19254;DHT22;9761;50.926;5.330;2022-07-18T02:48:26;18.50;99.90
19254;DHT22;9761;50.926;5.330;2022-07-18T02:50:58;18.60;99.90
19254;DHT22;9761;50.926;5.330;2022-07-18T02:53:28;18.50;99.90
19254;DHT22;9761;50.926;5.330;2022-07-18T02:55:56;18.50;99.90
19254;DHT22;9761;50.926;5.330;2022-07-18T02:58:27;18.50;99.90
19254;DHT22;9761;50.926;5.330;2022-07-18T03:00:55;18.50;99.90
19254;DHT22;9761;50.926;5.330;2022-07-18T03:03:22;18.40;99.90
19254;DHT22;9761;50.926;5.330;2022-07-18T03:05:50;18.30;99.90
19254;DHT22;9761;50.926;5.330;2022-07-18T03:08:16;18.30;99.90
19254;DHT22;9761;50.926;5.330;2022-07-18T03:10:46;18.20;99.90
19254;DHT22;9761;50.926;5.330;2022-07-18T03:13:13;18.20;99.90
19254;DHT22;9761;50.926;5.330;2022-07-18T03:15:41;18.20;99.90
19254;DHT22;9761;50.926;5.330;2022-07-18T03:18:09;18.20;99.90
19254;DHT22;9761;50.926;5.330;2022-07-18T03:20:37;18.10;99.90
19254;DHT22;9761;50.926;5.330;2022-07-18T03:23:04;18.10;99.90
19254;DHT22;9761;50.926;5.330;2022-07-18T03:25:32;18.10;99.90
19254;DHT22;9761;50.926;5.330;2022-07-18T03:28:20;18.00;99.90
19254;DHT22;9761;50.926;5.330;2022-07-18T03:31:13;17.90;99.90
19254;DHT22;9761;50.926;5.330;2022-07-18T03:33:51;17.90;99.90
19254;DHT22;9761;50.926;5.330;2022-07-18T03:36:23;17.80;99.90
19254;DHT22;9761;50.926;5.330;2022-07-18T03:38:50;17.70;99.90
19254;DHT22;9761;50.926;5.330;2022-07-18T03:41:17;17.70;99.90
19254;DHT22;9761;50.926;5.330;2022-07-18T03:43:43;17.70;99.90
19254;DHT22;9761;50.926;5.330;2022-07-18T03:46:10;17.60;99.90
19254;DHT22;9761;50.926;5.330;2022-07-18T03:48:37;17.60;99.90
19254;DHT22;9761;50.926;5.330;2022-07-18T03:51:05;17.60;99.90
19254;DHT22;9761;50.926;5.330;2022-07-18T03:53:32;17.60;99.90
19254;DHT22;9761;50.926;5.330;2022-07-18T03:55:59;17.60;99.90
19254;DHT22;9761;50.926;5.330;2022-07-18T03:58:25;17.70;99.90
19254;DHT22;9761;50.926;5.330;2022-07-18T04:00:52;17.70;99.90
19254;DHT22;9761;50.926;5.330;2022-07-18T04:03:19;17.70;99.90
19254;DHT22;9761;50.926;5.330;2022-07-18T04:05:46;17.70;99.90
19254;DHT22;9761;50.926;5.330;2022-07-18T04:08:17;17.60;99.90
19254;DHT22;9761;50.926;5.330;2022-07-18T04:10:44;17.60;99.90
19254;DHT22;9761;50.926;5.330;2022-07-18T04:13:13;17.70;99.90
19254;DHT22;9761;50.926;5.330;2022-07-18T04:15:40;17.70;99.90
19254;DHT22;9761;50.926;5.330;2022-07-18T04:18:08;17.70;99.90
19254;DHT22;9761;50.926;5.330;2022-07-18T04:20:35;17.70;99.90
19254;DHT22;9761;50.926;5.330;2022-07-18T04:23:04;17.60;99.90
19254;DHT22;9761;50.926;5.330;2022-07-18T04:25:34;17.70;99.90
19254;DHT22;9761;50.926;5.330;2022-07-18T04:28:02;17.70;99.90
19254;DHT22;9761;50.926;5.330;2022-07-18T04:30:30;17.70;99.90
19254;DHT22;9761;50.926;5.330;2022-07-18T04:32:57;17.80;99.90
19254;DHT22;9761;50.926;5.330;2022-07-18T04:35:24;17.80;99.90
19254;DHT22;9761;50.926;5.330;2022-07-18T04:37:50;17.80;99.90
19254;DHT22;9761;50.926;5.330;2022-07-18T04:40:17;17.80;99.90
19254;DHT22;9761;50.926;5.330;2022-07-18T04:42:46;17.90;99.90
19254;DHT22;9761;50.926;5.330;2022-07-18T04:45:13;17.90;99.90
19254;DHT22;9761;50.926;5.330;2022-07-18T04:47:43;18.00;99.90
19254;DHT22;9761;50.926;5.330;2022-07-18T04:50:23;18.10;99.90
19254;DHT22;9761;50.926;5.330;2022-07-18T04:52:51;18.00;99.90
19254;DHT22;9761;50.926;5.330;2022-07-18T04:55:21;17.80;99.90
19254;DHT22;9761;50.926;5.330;2022-07-18T04:57:50;17.70;99.90
19254;DHT22;9761;50.926;5.330;2022-07-18T05:00:18;17.60;99.90
19254;DHT22;9761;50.926;5.330;2022-07-18T05:02:46;17.70;99.90
19254;DHT22;9761;50.926;5.330;2022-07-18T05:05:14;17.70;99.90
19254;DHT22;9761;50.926;5.330;2022-07-18T05:07:41;17.80;99.90
19254;DHT22;9761;50.926;5.330;2022-07-18T05:10:09;17.80;99.90
19254;DHT22;9761;50.926;5.330;2022-07-18T05:12:36;17.90;99.90
19254;DHT22;9761;50.926;5.330;2022-07-18T05:15:06;18.00;99.90
19254;DHT22;9761;50.926;5.330;2022-07-18T05:17:33;18.10;99.90
19254;DHT22;9761;50.926;5.330;2022-07-18T05:20:00;18.10;99.90
19254;DHT22;9761;50.926;5.330;2022-07-18T05:22:27;18.20;99.90
19254;DHT22;9761;50.926;5.330;2022-07-18T05:24:53;18.30;99.90
19254;DHT22;9761;50.926;5.330;2022-07-18T05:27:20;18.30;99.90
19254;DHT22;9761;50.926;5.330;2022-07-18T05:29:47;18.50;99.90
19254;DHT22;9761;50.926;5.330;2022-07-18T05:32:15;18.60;99.90
19254;DHT22;9761;50.926;5.330;2022-07-18T05:34:42;18.70;99.90
19254;DHT22;9761;50.926;5.330;2022-07-18T05:37:09;18.90;99.90
19254;DHT22;9761;50.926;5.330;2022-07-18T05:39:36;19.10;99.90
19254;DHT22;9761;50.926;5.330;2022-07-18T05:42:03;19.20;99.90
19254;DHT22;9761;50.926;5.330;2022-07-18T05:44:30;19.40;99.90
19254;DHT22;9761;50.926;5.330;2022-07-18T05:46:58;19.50;99.90
19254;DHT22;9761;50.926;5.330;2022-07-18T05:49:27;19.60;99.90
19254;DHT22;9761;50.926;5.330;2022-07-18T05:51:57;19.70;99.90
19254;DHT22;9761;50.926;5.330;2022-07-18T05:54:24;19.80;99.90
19254;DHT22;9761;50.926;5.330;2022-07-18T05:56:51;20.10;99.90
19254;DHT22;9761;50.926;5.330;2022-07-18T05:59:19;20.20;99.90
19254;DHT22;9761;50.926;5.330;2022-07-18T06:01:46;20.20;99.90
19254;DHT22;9761;50.926;5.330;2022-07-18T06:04:13;20.40;99.90
19254;DHT22;9761;50.926;5.330;2022-07-18T06:06:42;20.60;99.90
19254;DHT22;9761;50.926;5.330;2022-07-18T06:09:10;20.80;99.90
19254;DHT22;9761;50.926;5.330;2022-07-18T06:11:39;20.90;99.90
19254;DHT22;9761;50.926;5.330;2022-07-18T06:14:05;20.70;99.90
19254;DHT22;9761;50.926;5.330;2022-07-18T06:16:32;20.80;99.90
19254;DHT22;9761;50.926;5.330;2022-07-18T06:19:06;20.90;99.90
19254;DHT22;9761;50.926;5.330;2022-07-18T06:21:48;21.00;99.90
19254;DHT22;9761;50.926;5.330;2022-07-18T06:24:15;21.00;99.90
19254;DHT22;9761;50.926;5.330;2022-07-18T06:26:43;21.30;99.90
19254;DHT22;9761;50.926;5.330;2022-07-18T06:29:10;21.40;99.90
19254;DHT22;9761;50.926;5.330;2022-07-18T06:31:37;21.50;99.90
19254;DHT22;9761;50.926;5.330;2022-07-18T06:34:03;21.60;99.90
19254;DHT22;9761;50.926;5.330;2022-07-18T06:36:31;21.70;99.90
19254;DHT22;9761;50.926;5.330;2022-07-18T06:39:01;21.70;99.90
19254;DHT22;9761;50.926;5.330;2022-07-18T06:41:33;21.80;99.90
19254;DHT22;9761;50.926;5.330;2022-07-18T06:44:00;21.80;99.90
19254;DHT22;9761;50.926;5.330;2022-07-18T06:46:27;21.90;99.90
19254;DHT22;9761;50.926;5.330;2022-07-18T06:48:54;22.00;99.90
19254;DHT22;9761;50.926;5.330;2022-07-18T06:51:20;21.80;99.90
19254;DHT22;9761;50.926;5.330;2022-07-18T06:53:47;21.80;99.90
19254;DHT22;9761;50.926;5.330;2022-07-18T06:56:15;21.80;99.90
19254;DHT22;9761;50.926;5.330;2022-07-18T06:58:42;21.70;99.90
19254;DHT22;9761;50.926;5.330;2022-07-18T07:01:14;21.80;99.90
19254;DHT22;9761;50.926;5.330;2022-07-18T07:03:43;22.00;99.90
19254;DHT22;9761;50.926;5.330;2022-07-18T07:06:09;22.10;99.90
19254;DHT22;9761;50.926;5.330;2022-07-18T07:08:39;22.10;99.90
19254;DHT22;9761;50.926;5.330;2022-07-18T07:11:08;22.20;99.90
19254;DHT22;9761;50.926;5.330;2022-07-18T07:13:36;22.50;99.90
19254;DHT22;9761;50.926;5.330;2022-07-18T07:16:05;22.60;99.90
19254;DHT22;9761;50.926;5.330;2022-07-18T07:18:35;22.60;99.90
19254;DHT22;9761;50.926;5.330;2022-07-18T07:21:02;22.60;99.90
19254;DHT22;9761;50.926;5.330;2022-07-18T07:23:29;22.70;99.90
19254;DHT22;9761;50.926;5.330;2022-07-18T07:25:56;22.80;99.90
19254;DHT22;9761;50.926;5.330;2022-07-18T07:28:25;22.70;99.90
19254;DHT22;9761;50.926;5.330;2022-07-18T07:30:54;22.80;99.90
19254;DHT22;9761;50.926;5.330;2022-07-18T07:33:21;22.80;99.90
19254;DHT22;9761;50.926;5.330;2022-07-18T07:35:47;23.00;99.90
19254;DHT22;9761;50.926;5.330;2022-07-18T07:38:14;23.30;99.90
19254;DHT22;9761;50.926;5.330;2022-07-18T07:40:49;23.50;99.90
19254;DHT22;9761;50.926;5.330;2022-07-18T07:46:29;23.90;99.90
19254;DHT22;9761;50.926;5.330;2022-07-18T07:52:26;24.00;99.90
19254;DHT22;9761;50.926;5.330;2022-07-18T07:54:59;24.40;99.90
19254;DHT22;9761;50.926;5.330;2022-07-18T07:57:59;24.30;99.90
19254;DHT22;9761;50.926;5.330;2022-07-18T08:56:40;26.80;98.80
19254;DHT22;9761;50.926;5.330;2022-07-18T08:59:07;26.80;98.10
19254;DHT22;9761;50.926;5.330;2022-07-18T09:01:34;26.90;97.40
19254;DHT22;9761;50.926;5.330;2022-07-18T09:04:01;27.00;97.20
19254;DHT22;9761;50.926;5.330;2022-07-18T09:06:46;26.90;97.50
19254;DHT22;9761;50.926;5.330;2022-07-18T09:09:13;27.00;97.70
19254;DHT22;9761;50.926;5.330;2022-07-18T09:11:50;27.50;96.80
19254;DHT22;9761;50.926;5.330;2022-07-18T09:17:03;27.20;96.40
19254;DHT22;9761;50.926;5.330;2022-07-18T09:19:30;27.30;95.70
19254;DHT22;9761;50.926;5.330;2022-07-18T09:24:48;27.70;95.40
19254;DHT22;9761;50.926;5.330;2022-07-18T09:27:25;27.80;95.70
19254;DHT22;9761;50.926;5.330;2022-07-18T09:30:12;28.00;94.70
19254;DHT22;9761;50.926;5.330;2022-07-18T09:32:43;28.10;94.60
19254;DHT22;9761;50.926;5.330;2022-07-18T09:35:22;28.00;93.50
19254;DHT22;9761;50.926;5.330;2022-07-18T09:40:53;27.60;93.30
19254;DHT22;9761;50.926;5.330;2022-07-18T09:43:31;28.00;93.00
19254;DHT22;9761;50.926;5.330;2022-07-18T09:46:18;28.10;92.50
19254;DHT22;9761;50.926;5.330;2022-07-18T09:49:08;28.10;91.30
19254;DHT22;9761;50.926;5.330;2022-07-18T09:52:00;28.30;91.00
19254;DHT22;9761;50.926;5.330;2022-07-18T09:54:34;28.60;90.40
19254;DHT22;9761;50.926;5.330;2022-07-18T09:57:01;28.60;91.10
19254;DHT22;9761;50.926;5.330;2022-07-18T09:59:29;28.60;91.60
19254;DHT22;9761;50.926;5.330;2022-07-18T10:01:56;28.30;91.80
19254;DHT22;9761;50.926;5.330;2022-07-18T10:04:23;28.60;91.70
19254;DHT22;9761;50.926;5.330;2022-07-18T10:06:50;28.70;91.10
19254;DHT22;9761;50.926;5.330;2022-07-18T10:09:17;28.70;90.50
19254;DHT22;9761;50.926;5.330;2022-07-18T10:11:43;28.70;90.60
19254;DHT22;9761;50.926;5.330;2022-07-18T10:14:10;28.60;89.90
19254;DHT22;9761;50.926;5.330;2022-07-18T10:16:38;28.60;88.10
19254;DHT22;9761;50.926;5.330;2022-07-18T10:19:06;28.60;86.20
19254;DHT22;9761;50.926;5.330;2022-07-18T10:21:33;28.70;86.30
19254;DHT22;9761;50.926;5.330;2022-07-18T10:24:00;28.90;86.80
19254;DHT22;9761;50.926;5.330;2022-07-18T10:26:28;28.90;85.70
19254;DHT22;9761;50.926;5.330;2022-07-18T10:29:15;29.00;84.40
19254;DHT22;9761;50.926;5.330;2022-07-18T10:34:32;29.20;84.50
19254;DHT22;9761;50.926;5.330;2022-07-18T10:37:23;29.40;82.80
19254;DHT22;9761;50.926;5.330;2022-07-18T10:45:42;29.10;81.10
19254;DHT22;9761;50.926;5.330;2022-07-18T10:51:07;29.80;80.70
19254;DHT22;9761;50.926;5.330;2022-07-18T10:56:20;29.60;75.60
19254;DHT22;9761;50.926;5.330;2022-07-18T10:58:47;30.20;74.20
19254;DHT22;9761;50.926;5.330;2022-07-18T11:01:15;30.30;73.90
19254;DHT22;9761;50.926;5.330;2022-07-18T11:03:42;30.50;74.10
19254;DHT22;9761;50.926;5.330;2022-07-18T11:06:15;30.40;72.70
19254;DHT22;9761;50.926;5.330;2022-07-18T11:08:42;30.20;73.20
19254;DHT22;9761;50.926;5.330;2022-07-18T11:11:12;30.50;70.70
19254;DHT22;9761;50.926;5.330;2022-07-18T11:13:41;30.50;69.30
19254;DHT22;9761;50.926;5.330;2022-07-18T11:16:23;30.30;68.90
19254;DHT22;9761;50.926;5.330;2022-07-18T11:19:18;30.10;66.50
19254;DHT22;9761;50.926;5.330;2022-07-18T11:22:02;30.00;64.80
19254;DHT22;9761;50.926;5.330;2022-07-18T11:24:31;30.00;65.00
19254;DHT22;9761;50.926;5.330;2022-07-18T11:27:00;30.00;68.10
19254;DHT22;9761;50.926;5.330;2022-07-18T11:29:33;29.90;66.70
19254;DHT22;9761;50.926;5.330;2022-07-18T11:32:06;30.00;66.80
19254;DHT22;9761;50.926;5.330;2022-07-18T11:34:33;30.40;66.00
19254;DHT22;9761;50.926;5.330;2022-07-18T11:37:01;30.60;64.40
19254;DHT22;9761;50.926;5.330;2022-07-18T11:39:30;31.00;64.80
19254;DHT22;9761;50.926;5.330;2022-07-18T11:41:57;31.20;63.90
19254;DHT22;9761;50.926;5.330;2022-07-18T11:44:26;30.70;63.60
19254;DHT22;9761;50.926;5.330;2022-07-18T11:47:00;30.50;62.30
19254;DHT22;9761;50.926;5.330;2022-07-18T11:49:27;30.50;63.00
19254;DHT22;9761;50.926;5.330;2022-07-18T11:51:54;30.50;63.10
19254;DHT22;9761;50.926;5.330;2022-07-18T11:54:23;30.40;61.30
19254;DHT22;9761;50.926;5.330;2022-07-18T11:56:51;30.60;62.20
19254;DHT22;9761;50.926;5.330;2022-07-18T11:59:18;30.70;61.70
19254;DHT22;9761;50.926;5.330;2022-07-18T12:01:47;30.60;59.80
19254;DHT22;9761;50.926;5.330;2022-07-18T12:04:18;30.60;60.40
19254;DHT22;9761;50.926;5.330;2022-07-18T12:06:46;30.90;59.40
19254;DHT22;9761;50.926;5.330;2022-07-18T12:09:13;31.10;61.50
19254;DHT22;9761;50.926;5.330;2022-07-18T12:11:54;31.20;60.00
19254;DHT22;9761;50.926;5.330;2022-07-18T12:14:22;31.20;60.60
19254;DHT22;9761;50.926;5.330;2022-07-18T12:16:57;31.70;60.60
19254;DHT22;9761;50.926;5.330;2022-07-18T12:19:32;31.40;59.10
19254;DHT22;9761;50.926;5.330;2022-07-18T12:22:04;31.20;58.80
19254;DHT22;9761;50.926;5.330;2022-07-18T12:24:32;31.40;59.10
19254;DHT22;9761;50.926;5.330;2022-07-18T12:27:17;31.30;58.60
19254;DHT22;9761;50.926;5.330;2022-07-18T12:29:54;31.30;60.50
19254;DHT22;9761;50.926;5.330;2022-07-18T12:32:22;31.20;59.90
19254;DHT22;9761;50.926;5.330;2022-07-18T12:34:55;31.40;59.40
19254;DHT22;9761;50.926;5.330;2022-07-18T12:37:23;31.40;58.50
19254;DHT22;9761;50.926;5.330;2022-07-18T12:39:56;31.70;58.00
19254;DHT22;9761;50.926;5.330;2022-07-18T12:42:31;31.80;59.10
19254;DHT22;9761;50.926;5.330;2022-07-18T12:44:58;31.70;58.90
19254;DHT22;9761;50.926;5.330;2022-07-18T12:47:25;31.90;57.60
19254;DHT22;9761;50.926;5.330;2022-07-18T12:49:51;31.40;56.50
19254;DHT22;9761;50.926;5.330;2022-07-18T12:52:18;31.50;56.30
19254;DHT22;9761;50.926;5.330;2022-07-18T12:54:45;31.90;56.60
19254;DHT22;9761;50.926;5.330;2022-07-18T12:57:17;32.20;56.70
19254;DHT22;9761;50.926;5.330;2022-07-18T13:00:05;31.90;55.40
19254;DHT22;9761;50.926;5.330;2022-07-18T13:02:36;32.30;55.30
19254;DHT22;9761;50.926;5.330;2022-07-18T13:05:03;32.40;52.50
19254;DHT22;9761;50.926;5.330;2022-07-18T13:07:30;32.30;53.80
19254;DHT22;9761;50.926;5.330;2022-07-18T13:09:57;32.20;53.50
19254;DHT22;9761;50.926;5.330;2022-07-18T13:12:27;32.60;53.70
19254;DHT22;9761;50.926;5.330;2022-07-18T13:14:55;32.70;52.10
19254;DHT22;9761;50.926;5.330;2022-07-18T13:17:31;32.90;53.30
19254;DHT22;9761;50.926;5.330;2022-07-18T13:19:58;32.60;51.30
19254;DHT22;9761;50.926;5.330;2022-07-18T13:22:26;32.60;51.80
19254;DHT22;9761;50.926;5.330;2022-07-18T13:24:56;32.10;51.50
19254;DHT22;9761;50.926;5.330;2022-07-18T13:27:25;32.20;53.10
19254;DHT22;9761;50.926;5.330;2022-07-18T13:29:51;32.20;51.50
19254;DHT22;9761;50.926;5.330;2022-07-18T13:32:20;32.40;50.80
19254;DHT22;9761;50.926;5.330;2022-07-18T13:34:49;33.00;50.40
19254;DHT22;9761;50.926;5.330;2022-07-18T13:37:16;32.60;50.90
19254;DHT22;9761;50.926;5.330;2022-07-18T13:39:42;33.00;50.50
19254;DHT22;9761;50.926;5.330;2022-07-18T13:42:09;33.00;51.30
19254;DHT22;9761;50.926;5.330;2022-07-18T13:44:37;33.40;50.60
19254;DHT22;9761;50.926;5.330;2022-07-18T13:47:03;33.70;50.00
19254;DHT22;9761;50.926;5.330;2022-07-18T13:49:34;33.40;51.10
19254;DHT22;9761;50.926;5.330;2022-07-18T13:52:02;33.40;48.60
19254;DHT22;9761;50.926;5.330;2022-07-18T13:54:30;33.00;48.00
19254;DHT22;9761;50.926;5.330;2022-07-18T13:57:01;33.30;48.60
19254;DHT22;9761;50.926;5.330;2022-07-18T13:59:29;33.10;47.60
19254;DHT22;9761;50.926;5.330;2022-07-18T14:01:56;33.00;48.10
19254;DHT22;9761;50.926;5.330;2022-07-18T14:04:23;33.40;47.70
19254;DHT22;9761;50.926;5.330;2022-07-18T14:06:55;33.60;47.70
19254;DHT22;9761;50.926;5.330;2022-07-18T14:09:24;33.60;47.20
19254;DHT22;9761;50.926;5.330;2022-07-18T14:11:50;33.60;47.60
19254;DHT22;9761;50.926;5.330;2022-07-18T14:14:17;33.30;46.60
19254;DHT22;9761;50.926;5.330;2022-07-18T14:16:46;33.30;46.40
19254;DHT22;9761;50.926;5.330;2022-07-18T14:19:12;33.50;46.80
19254;DHT22;9761;50.926;5.330;2022-07-18T14:21:39;33.60;46.70
19254;DHT22;9761;50.926;5.330;2022-07-18T14:24:14;33.40;46.70
19254;DHT22;9761;50.926;5.330;2022-07-18T14:26:42;33.20;46.30
19254;DHT22;9761;50.926;5.330;2022-07-18T14:29:09;32.90;46.20
19254;DHT22;9761;50.926;5.330;2022-07-18T14:31:39;33.30;46.60
19254;DHT22;9761;50.926;5.330;2022-07-18T14:34:06;33.70;46.80
19254;DHT22;9761;50.926;5.330;2022-07-18T14:36:33;34.30;45.80
19254;DHT22;9761;50.926;5.330;2022-07-18T14:39:01;34.50;46.50
19254;DHT22;9761;50.926;5.330;2022-07-18T14:41:28;34.60;46.10
19254;DHT22;9761;50.926;5.330;2022-07-18T14:43:56;35.10;44.70
19254;DHT22;9761;50.926;5.330;2022-07-18T14:46:23;35.60;45.40
19254;DHT22;9761;50.926;5.330;2022-07-18T14:48:50;36.80;45.00
19254;DHT22;9761;50.926;5.330;2022-07-18T14:51:19;36.50;44.80
19254;DHT22;9761;50.926;5.330;2022-07-18T14:53:46;36.60;43.10
19254;DHT22;9761;50.926;5.330;2022-07-18T14:56:22;36.70;43.70
19254;DHT22;9761;50.926;5.330;2022-07-18T14:58:53;37.60;42.90
19254;DHT22;9761;50.926;5.330;2022-07-18T15:01:35;38.30;42.70
19254;DHT22;9761;50.926;5.330;2022-07-18T15:04:05;38.10;41.80
19254;DHT22;9761;50.926;5.330;2022-07-18T15:06:34;38.30;41.30
19254;DHT22;9761;50.926;5.330;2022-07-18T15:09:10;38.10;40.70
19254;DHT22;9761;50.926;5.330;2022-07-18T15:11:39;37.70;40.90
19254;DHT22;9761;50.926;5.330;2022-07-18T15:14:11;38.40;39.60
19254;DHT22;9761;50.926;5.330;2022-07-18T15:16:44;38.60;40.30
19254;DHT22;9761;50.926;5.330;2022-07-18T15:21:48;37.60;40.00
19254;DHT22;9761;50.926;5.330;2022-07-18T15:24:19;37.30;40.20
19254;DHT22;9761;50.926;5.330;2022-07-18T15:26:49;37.40;39.10
19254;DHT22;9761;50.926;5.330;2022-07-18T15:29:23;37.10;40.50
19254;DHT22;9761;50.926;5.330;2022-07-18T15:32:01;38.20;40.00
19254;DHT22;9761;50.926;5.330;2022-07-18T15:34:33;39.00;39.10
19254;DHT22;9761;50.926;5.330;2022-07-18T15:37:07;38.50;38.50
19254;DHT22;9761;50.926;5.330;2022-07-18T15:39:37;37.50;38.60
19254;DHT22;9761;50.926;5.330;2022-07-18T15:42:07;37.80;38.60
19254;DHT22;9761;50.926;5.330;2022-07-18T15:44:33;37.60;38.50
19254;DHT22;9761;50.926;5.330;2022-07-18T15:47:07;37.30;37.90
19254;DHT22;9761;50.926;5.330;2022-07-18T15:49:44;37.90;38.30
19254;DHT22;9761;50.926;5.330;2022-07-18T15:52:12;38.30;37.90
19254;DHT22;9761;50.926;5.330;2022-07-18T15:54:39;38.60;38.30
19254;DHT22;9761;50.926;5.330;2022-07-18T15:57:06;39.60;37.10
19254;DHT22;9761;50.926;5.330;2022-07-18T15:59:42;39.90;36.60
19254;DHT22;9761;50.926;5.330;2022-07-18T16:11:10;39.80;36.60
19254;DHT22;9761;50.926;5.330;2022-07-18T16:13:50;38.70;36.70
19254;DHT22;9761;50.926;5.330;2022-07-18T16:16:22;39.30;36.70
19254;DHT22;9761;50.926;5.330;2022-07-18T16:21:57;38.90;36.60
19254;DHT22;9761;50.926;5.330;2022-07-18T16:24:24;39.10;36.70
19254;DHT22;9761;50.926;5.330;2022-07-18T16:26:56;39.40;36.50
19254;DHT22;9761;50.926;5.330;2022-07-18T16:29:38;38.70;35.90
19254;DHT22;9761;50.926;5.330;2022-07-18T16:32:08;38.30;36.00
19254;DHT22;9761;50.926;5.330;2022-07-18T16:34:37;38.60;36.20
19254;DHT22;9761;50.926;5.330;2022-07-18T16:37:16;38.80;35.70
19254;DHT22;9761;50.926;5.330;2022-07-18T16:39:46;39.70;36.50
19254;DHT22;9761;50.926;5.330;2022-07-18T16:42:19;38.50;35.00
19254;DHT22;9761;50.926;5.330;2022-07-18T16:44:46;39.00;35.60
19254;DHT22;9761;50.926;5.330;2022-07-18T16:47:14;38.70;35.60
19254;DHT22;9761;50.926;5.330;2022-07-18T16:49:46;38.80;36.40
19254;DHT22;9761;50.926;5.330;2022-07-18T16:52:14;38.60;35.90
19254;DHT22;9761;50.926;5.330;2022-07-18T16:54:51;37.60;36.00
19254;DHT22;9761;50.926;5.330;2022-07-18T16:57:25;36.00;36.30
19254;DHT22;9761;50.926;5.330;2022-07-18T17:00:03;35.70;37.30
19254;DHT22;9761;50.926;5.330;2022-07-18T17:02:37;35.80;37.70
19254;DHT22;9761;50.926;5.330;2022-07-18T17:05:09;35.50;37.40
19254;DHT22;9761;50.926;5.330;2022-07-18T17:07:37;34.80;38.10
19254;DHT22;9761;50.926;5.330;2022-07-18T17:10:09;34.40;38.50
19254;DHT22;9761;50.926;5.330;2022-07-18T17:12:38;34.20;38.50
19254;DHT22;9761;50.926;5.330;2022-07-18T17:15:06;34.20;38.80
19254;DHT22;9761;50.926;5.330;2022-07-18T17:17:35;34.10;38.70
19254;DHT22;9761;50.926;5.330;2022-07-18T17:20:03;34.30;39.50
19254;DHT22;9761;50.926;5.330;2022-07-18T17:22:31;34.20;38.60
19254;DHT22;9761;50.926;5.330;2022-07-18T17:24:59;34.20;39.30
19254;DHT22;9761;50.926;5.330;2022-07-18T17:27:26;34.10;38.50
19254;DHT22;9761;50.926;5.330;2022-07-18T17:29:57;33.90;38.90
19254;DHT22;9761;50.926;5.330;2022-07-18T17:32:33;33.70;38.50
19254;DHT22;9761;50.926;5.330;2022-07-18T17:35:02;33.60;39.40
19254;DHT22;9761;50.926;5.330;2022-07-18T17:37:29;33.70;39.10
19254;DHT22;9761;50.926;5.330;2022-07-18T17:39:56;33.60;39.50
19254;DHT22;9761;50.926;5.330;2022-07-18T17:42:25;33.70;39.10
19254;DHT22;9761;50.926;5.330;2022-07-18T17:44:52;33.60;39.00
19254;DHT22;9761;50.926;5.330;2022-07-18T17:47:22;33.30;39.10